CFG5VL LPMA-GCTS
Flight info
| Callsign | CFG5VL |
|---|---|
| Flight time | 1h 1m |
| Altitude | 33000 |
| Route | GOSGA DCT ORTIS |
| Aircraft | A320/M-SDE3FGHIRWY/LB1 |
Departure
| Time | 2026-05-07 21:05 |
|---|---|
| Airport | Cristiano Ronaldo International Airport (LPMA) |
Arrival
| Time | 2026-05-07 22:06 |
|---|---|
| Airport | Tenerife Sur Airport (GCTS) |
| Time | Latitude | Longitude | Altitude | Speed | Heading |
|---|---|---|---|---|---|
| 2026-05-07 20:40 | 32.69413 | -16.77591 | 169 ft | 0 kts | 138° |
| 2026-05-07 20:54 | 32.69420 | -16.77599 | 169 ft | 3 kts | 138° |
| 2026-05-07 20:55 | 32.69435 | -16.77615 | 169 ft | 3 kts | 138° |
| 2026-05-07 20:55 | 32.69448 | -16.77631 | 169 ft | 3 kts | 114° |
| 2026-05-07 20:55 | 32.69452 | -16.77650 | 169 ft | 3 kts | 67° |
| 2026-05-07 20:55 | 32.69446 | -16.77663 | 169 ft | 1 kts | 46° |
| 2026-05-07 20:56 | 32.69436 | -16.77675 | 169 ft | 1 kts | 46° |
| 2026-05-07 20:56 | 32.69434 | -16.77677 | 169 ft | 0 kts | 46° |
| 2026-05-07 20:58 | 32.69449 | -16.77658 | 169 ft | 11 kts | 46° |
| 2026-05-07 20:59 | 32.69486 | -16.77613 | 169 ft | 2 kts | 45° |
| 2026-05-07 20:59 | 32.69490 | -16.77608 | 169 ft | 2 kts | 47° |
| 2026-05-07 20:59 | 32.69515 | -16.77576 | 169 ft | 4 kts | 46° |
| 2026-05-07 20:59 | 32.69525 | -16.77564 | 169 ft | 1 kts | 46° |
| 2026-05-07 21:00 | 32.69557 | -16.77524 | 169 ft | 8 kts | 46° |
| 2026-05-07 21:00 | 32.69615 | -16.77452 | 169 ft | 15 kts | 46° |
| 2026-05-07 21:00 | 32.69681 | -16.77371 | 169 ft | 16 kts | 46° |
| 2026-05-07 21:00 | 32.69766 | -16.77267 | 177 ft | 13 kts | 45° |
| 2026-05-07 21:01 | 32.69819 | -16.77202 | 182 ft | 15 kts | 44° |
| 2026-05-07 21:01 | 32.69927 | -16.77179 | 188 ft | 12 kts | 356° |
| 2026-05-07 21:01 | 32.70001 | -16.77180 | 195 ft | 9 kts | 7° |
| 2026-05-07 21:01 | 32.70049 | -16.77146 | 192 ft | 13 kts | 46° |
| 2026-05-07 21:02 | 32.70155 | -16.77018 | 188 ft | 29 kts | 44° |
| 2026-05-07 21:02 | 32.70300 | -16.76848 | 188 ft | 29 kts | 44° |
| 2026-05-07 21:02 | 32.70437 | -16.76688 | 192 ft | 27 kts | 43° |
| 2026-05-07 21:02 | 32.70565 | -16.76544 | 191 ft | 24 kts | 45° |
| 2026-05-07 21:03 | 32.70684 | -16.76472 | 195 ft | 16 kts | 31° |
| 2026-05-07 21:03 | 32.70687 | -16.76405 | 201 ft | 3 kts | 159° |
| 2026-05-07 21:03 | 32.70655 | -16.76428 | 196 ft | 0 kts | 221° |
| 2026-05-07 21:04 | 32.70648 | -16.76436 | 190 ft | 14 kts | 223° |
| 2026-05-07 21:04 | 32.70397 | -16.76738 | 194 ft | 85 kts | 225° |
| 2026-05-07 21:04 | 32.69833 | -16.77390 | 193 ft | 139 kts | 224° |
| 2026-05-07 21:04 | 32.69069 | -16.78289 | 466 ft | 160 kts | 220° |
| 2026-05-07 21:05 | 32.68195 | -16.79127 | 1019 ft | 171 kts | 207° |
| 2026-05-07 21:05 | 32.67018 | -16.79411 | 1711 ft | 177 kts | 176° |
| 2026-05-07 21:05 | 32.65749 | -16.79109 | 2115 ft | 199 kts | 171° |
| 2026-05-07 21:05 | 32.64334 | -16.78704 | 2427 ft | 221 kts | 170° |
| 2026-05-07 21:06 | 32.62784 | -16.78262 | 2968 ft | 232 kts | 170° |
| 2026-05-07 21:06 | 32.61166 | -16.77796 | 3572 ft | 248 kts | 170° |
| 2026-05-07 21:06 | 32.59471 | -16.77315 | 4423 ft | 252 kts | 169° |
| 2026-05-07 21:06 | 32.57748 | -16.76827 | 5264 ft | 257 kts | 170° |
| 2026-05-07 21:07 | 32.55983 | -16.76330 | 6050 ft | 263 kts | 170° |
| 2026-05-07 21:07 | 32.54216 | -16.75835 | 6900 ft | 265 kts | 170° |
| 2026-05-07 21:07 | 32.52413 | -16.75333 | 7731 ft | 268 kts | 170° |
| 2026-05-07 21:07 | 32.50580 | -16.74823 | 8496 ft | 273 kts | 170° |
| 2026-05-07 21:08 | 32.48717 | -16.74306 | 9286 ft | 276 kts | 170° |
| 2026-05-07 21:08 | 32.46835 | -16.73786 | 10063 ft | 280 kts | 170° |
| 2026-05-07 21:08 | 32.44872 | -16.73246 | 10388 ft | 301 kts | 169° |
| 2026-05-07 21:08 | 32.42754 | -16.72666 | 10627 ft | 323 kts | 169° |
| 2026-05-07 21:09 | 32.40529 | -16.72052 | 11167 ft | 332 kts | 169° |
| 2026-05-07 21:09 | 32.38293 | -16.71431 | 11858 ft | 336 kts | 169° |
| 2026-05-07 21:09 | 32.36006 | -16.70796 | 12557 ft | 340 kts | 169° |
| 2026-05-07 21:09 | 32.33690 | -16.70152 | 13242 ft | 343 kts | 169° |
| 2026-05-07 21:10 | 32.31353 | -16.69503 | 13905 ft | 347 kts | 169° |
| 2026-05-07 21:10 | 32.28989 | -16.68845 | 14548 ft | 350 kts | 169° |
| 2026-05-07 21:10 | 32.26604 | -16.68185 | 15179 ft | 354 kts | 169° |
| 2026-05-07 21:10 | 32.24197 | -16.67520 | 15793 ft | 357 kts | 169° |
| 2026-05-07 21:11 | 32.21765 | -16.66848 | 16395 ft | 360 kts | 169° |
| 2026-05-07 21:11 | 32.19314 | -16.66170 | 16979 ft | 364 kts | 169° |
| 2026-05-07 21:11 | 32.14347 | -16.64804 | 17817 ft | 381 kts | 174° |
| 2026-05-07 21:12 | 32.11710 | -16.64091 | 18034 ft | 395 kts | 174° |
| 2026-05-07 21:12 | 32.09011 | -16.63359 | 18497 ft | 400 kts | 175° |
| 2026-05-07 21:12 | 32.06266 | -16.62901 | 18982 ft | 398 kts | 182° |
| 2026-05-07 21:12 | 32.03497 | -16.62586 | 19460 ft | 402 kts | 182° |
| 2026-05-07 21:13 | 32.00698 | -16.62275 | 19953 ft | 406 kts | 182° |
| 2026-05-07 21:13 | 31.97877 | -16.61964 | 20462 ft | 409 kts | 182° |
| 2026-05-07 21:13 | 31.95031 | -16.61655 | 20966 ft | 412 kts | 182° |
| 2026-05-07 21:13 | 31.92159 | -16.61345 | 21469 ft | 416 kts | 182° |
| 2026-05-07 21:14 | 31.89307 | -16.61032 | 21972 ft | 419 kts | 182° |
| 2026-05-07 21:14 | 31.86390 | -16.60712 | 22447 ft | 423 kts | 182° |
| 2026-05-07 21:14 | 31.83452 | -16.60389 | 22915 ft | 426 kts | 182° |
| 2026-05-07 21:14 | 31.80486 | -16.60061 | 23379 ft | 429 kts | 182° |
| 2026-05-07 21:15 | 31.77502 | -16.59730 | 23755 ft | 433 kts | 181° |
| 2026-05-07 21:15 | 31.74493 | -16.59399 | 24136 ft | 435 kts | 182° |
| 2026-05-07 21:15 | 31.71469 | -16.59067 | 24538 ft | 437 kts | 182° |
| 2026-05-07 21:15 | 31.68438 | -16.58733 | 24936 ft | 439 kts | 182° |
| 2026-05-07 21:16 | 31.65395 | -16.58399 | 25325 ft | 440 kts | 182° |
| 2026-05-07 21:16 | 31.62384 | -16.58067 | 25703 ft | 441 kts | 182° |
| 2026-05-07 21:16 | 31.59318 | -16.57730 | 26076 ft | 443 kts | 182° |
| 2026-05-07 21:16 | 31.56246 | -16.57393 | 26442 ft | 445 kts | 182° |
| 2026-05-07 21:17 | 31.53161 | -16.57054 | 26803 ft | 446 kts | 182° |
| 2026-05-07 21:17 | 31.50064 | -16.56715 | 27155 ft | 447 kts | 182° |
| 2026-05-07 21:17 | 31.46966 | -16.56376 | 27526 ft | 448 kts | 182° |
| 2026-05-07 21:17 | 31.43854 | -16.56039 | 27872 ft | 450 kts | 182° |
| 2026-05-07 21:18 | 31.40732 | -16.55701 | 28213 ft | 451 kts | 182° |
| 2026-05-07 21:18 | 31.37601 | -16.55368 | 28546 ft | 452 kts | 182° |
| 2026-05-07 21:18 | 31.34509 | -16.55046 | 28868 ft | 453 kts | 182° |
| 2026-05-07 21:18 | 31.31360 | -16.54722 | 29173 ft | 455 kts | 183° |
| 2026-05-07 21:19 | 31.28205 | -16.54397 | 29474 ft | 456 kts | 182° |
| 2026-05-07 21:19 | 31.25042 | -16.54071 | 29723 ft | 457 kts | 183° |
| 2026-05-07 21:19 | 31.21874 | -16.53748 | 30055 ft | 457 kts | 183° |
| 2026-05-07 21:19 | 31.18701 | -16.53422 | 30303 ft | 458 kts | 184° |
| 2026-05-07 21:20 | 31.15525 | -16.53098 | 30517 ft | 459 kts | 184° |
| 2026-05-07 21:20 | 31.12339 | -16.52773 | 30718 ft | 461 kts | 184° |
| 2026-05-07 21:20 | 31.09181 | -16.52454 | 30902 ft | 462 kts | 184° |
| 2026-05-07 21:20 | 31.05971 | -16.52129 | 31088 ft | 463 kts | 184° |
| 2026-05-07 21:21 | 31.02756 | -16.51802 | 31258 ft | 465 kts | 184° |
| 2026-05-07 21:21 | 30.99535 | -16.51472 | 31422 ft | 465 kts | 185° |
| 2026-05-07 21:21 | 30.96313 | -16.51137 | 31644 ft | 465 kts | 185° |
| 2026-05-07 21:21 | 30.93094 | -16.50802 | 31865 ft | 465 kts | 185° |
| 2026-05-07 21:22 | 30.89871 | -16.50469 | 32089 ft | 465 kts | 185° |
| 2026-05-07 21:22 | 30.86651 | -16.50135 | 32313 ft | 465 kts | 186° |
| 2026-05-07 21:22 | 30.83433 | -16.49805 | 32530 ft | 465 kts | 186° |
| 2026-05-07 21:22 | 30.80253 | -16.49482 | 32743 ft | 465 kts | 186° |
| 2026-05-07 21:23 | 30.77035 | -16.49156 | 32959 ft | 465 kts | 186° |
| 2026-05-07 21:23 | 30.73812 | -16.48830 | 33175 ft | 465 kts | 186° |
| 2026-05-07 21:23 | 30.70596 | -16.48508 | 33341 ft | 463 kts | 187° |
| 2026-05-07 21:23 | 30.67388 | -16.48185 | 33621 ft | 462 kts | 188° |
| 2026-05-07 21:24 | 30.64194 | -16.47863 | 33870 ft | 461 kts | 188° |
| 2026-05-07 21:24 | 30.61000 | -16.47535 | 34092 ft | 460 kts | 188° |
| 2026-05-07 21:24 | 30.57809 | -16.47203 | 34296 ft | 460 kts | 188° |
| 2026-05-07 21:24 | 30.54623 | -16.46871 | 34484 ft | 460 kts | 188° |
| 2026-05-07 21:25 | 30.51434 | -16.46545 | 34677 ft | 460 kts | 188° |
| 2026-05-07 21:25 | 30.48294 | -16.46231 | 34863 ft | 459 kts | 188° |
| 2026-05-07 21:25 | 30.45113 | -16.45915 | 34986 ft | 459 kts | 188° |
| 2026-05-07 21:25 | 30.41940 | -16.45600 | 35235 ft | 456 kts | 188° |
| 2026-05-07 21:26 | 30.38781 | -16.45285 | 35440 ft | 456 kts | 187° |
| 2026-05-07 21:26 | 30.35635 | -16.44962 | 35601 ft | 453 kts | 187° |
| 2026-05-07 21:26 | 30.32489 | -16.44639 | 35725 ft | 454 kts | 187° |
| 2026-05-07 21:26 | 30.29342 | -16.44322 | 35856 ft | 455 kts | 187° |
| 2026-05-07 21:27 | 30.26188 | -16.44007 | 36008 ft | 455 kts | 187° |
| 2026-05-07 21:27 | 30.23039 | -16.43692 | 36055 ft | 454 kts | 187° |
| 2026-05-07 21:27 | 30.16800 | -16.43058 | 36049 ft | 452 kts | 187° |
| 2026-05-07 21:28 | 30.10538 | -16.42421 | 36060 ft | 451 kts | 187° |
| 2026-05-07 21:28 | 30.04279 | -16.41798 | 36060 ft | 451 kts | 187° |
| 2026-05-07 21:29 | 29.98022 | -16.41182 | 36060 ft | 451 kts | 187° |
| 2026-05-07 21:29 | 29.91804 | -16.40558 | 36031 ft | 452 kts | 187° |
| 2026-05-07 21:30 | 29.85531 | -16.39928 | 36055 ft | 453 kts | 187° |
| 2026-05-07 21:30 | 29.79243 | -16.39300 | 36065 ft | 454 kts | 187° |
| 2026-05-07 21:31 | 29.72953 | -16.38666 | 36074 ft | 453 kts | 187° |
| 2026-05-07 21:31 | 29.66672 | -16.38040 | 36071 ft | 453 kts | 188° |
| 2026-05-07 21:32 | 29.63618 | -16.38017 | 36073 ft | 438 kts | 197° |
| 2026-05-07 21:32 | 29.60664 | -16.38547 | 36073 ft | 422 kts | 206° |
| 2026-05-07 21:32 | 29.57919 | -16.39580 | 36070 ft | 408 kts | 214° |
| 2026-05-07 21:32 | 29.55432 | -16.41043 | 36068 ft | 396 kts | 223° |
| 2026-05-07 21:33 | 29.51157 | -16.44836 | 36075 ft | 387 kts | 229° |
| 2026-05-07 21:33 | 29.46999 | -16.48765 | 36068 ft | 387 kts | 229° |
| 2026-05-07 21:34 | 29.42852 | -16.52652 | 36067 ft | 388 kts | 229° |
| 2026-05-07 21:34 | 29.38676 | -16.56575 | 36067 ft | 388 kts | 229° |
| 2026-05-07 21:35 | 29.34496 | -16.60500 | 36074 ft | 388 kts | 229° |
| 2026-05-07 21:35 | 29.30314 | -16.64427 | 36032 ft | 389 kts | 228° |
| 2026-05-07 21:36 | 29.26152 | -16.68339 | 36042 ft | 390 kts | 228° |
| 2026-05-07 21:36 | 29.21948 | -16.72281 | 36037 ft | 391 kts | 228° |
| 2026-05-07 21:37 | 29.17722 | -16.76243 | 36042 ft | 393 kts | 228° |
| 2026-05-07 21:37 | 29.13480 | -16.80206 | 36049 ft | 394 kts | 228° |
| 2026-05-07 21:38 | 29.11349 | -16.82194 | 35854 ft | 395 kts | 228° |
| 2026-05-07 21:38 | 29.09222 | -16.84181 | 35612 ft | 395 kts | 228° |
| 2026-05-07 21:38 | 29.07120 | -16.86145 | 35371 ft | 395 kts | 228° |
| 2026-05-07 21:38 | 29.04985 | -16.88130 | 35130 ft | 396 kts | 228° |
| 2026-05-07 21:39 | 29.02850 | -16.90114 | 34890 ft | 396 kts | 227° |
| 2026-05-07 21:39 | 29.00714 | -16.92104 | 34609 ft | 397 kts | 227° |
| 2026-05-07 21:39 | 28.98567 | -16.94108 | 33957 ft | 400 kts | 226° |
| 2026-05-07 21:39 | 28.96409 | -16.96124 | 33063 ft | 402 kts | 226° |
| 2026-05-07 21:40 | 28.94242 | -16.98143 | 32209 ft | 403 kts | 226° |
| 2026-05-07 21:40 | 28.92062 | -17.00171 | 31309 ft | 405 kts | 226° |
| 2026-05-07 21:40 | 28.89902 | -17.02177 | 30482 ft | 407 kts | 226° |
| 2026-05-07 21:40 | 28.87694 | -17.04224 | 29414 ft | 411 kts | 226° |
| 2026-05-07 21:41 | 28.85488 | -17.06264 | 28863 ft | 404 kts | 226° |
| 2026-05-07 21:41 | 28.83322 | -17.08262 | 28257 ft | 398 kts | 226° |
| 2026-05-07 21:41 | 28.81181 | -17.10237 | 27647 ft | 394 kts | 226° |
| 2026-05-07 21:41 | 28.79057 | -17.12202 | 27185 ft | 396 kts | 226° |
| 2026-05-07 21:42 | 28.76900 | -17.14206 | 27040 ft | 402 kts | 226° |
| 2026-05-07 21:42 | 28.74726 | -17.16223 | 27075 ft | 405 kts | 226° |
| 2026-05-07 21:42 | 28.72540 | -17.18251 | 27073 ft | 405 kts | 226° |
| 2026-05-07 21:42 | 28.70354 | -17.20277 | 27045 ft | 406 kts | 225° |
| 2026-05-07 21:43 | 28.68194 | -17.22277 | 27076 ft | 406 kts | 225° |
| 2026-05-07 21:43 | 28.65996 | -17.24307 | 27076 ft | 407 kts | 225° |
| 2026-05-07 21:43 | 28.63797 | -17.26334 | 27068 ft | 406 kts | 225° |
| 2026-05-07 21:43 | 28.61599 | -17.28354 | 26217 ft | 409 kts | 225° |
| 2026-05-07 21:44 | 28.59364 | -17.30412 | 25129 ft | 415 kts | 225° |
| 2026-05-07 21:44 | 28.57121 | -17.32477 | 24307 ft | 415 kts | 225° |
| 2026-05-07 21:44 | 28.54885 | -17.34532 | 23573 ft | 412 kts | 225° |
| 2026-05-07 21:44 | 28.52662 | -17.36574 | 22730 ft | 409 kts | 224° |
| 2026-05-07 21:45 | 28.50480 | -17.38578 | 21919 ft | 409 kts | 223° |
| 2026-05-07 21:45 | 28.48025 | -17.40261 | 21136 ft | 419 kts | 206° |
| 2026-05-07 21:45 | 28.45126 | -17.40857 | 20400 ft | 433 kts | 183° |
| 2026-05-07 21:45 | 28.42154 | -17.40167 | 19717 ft | 444 kts | 160° |
| 2026-05-07 21:46 | 28.39585 | -17.38234 | 19270 ft | 445 kts | 136° |
| 2026-05-07 21:46 | 28.37730 | -17.35475 | 19149 ft | 434 kts | 124° |
| 2026-05-07 21:46 | 28.36203 | -17.32586 | 19026 ft | 421 kts | 120° |
| 2026-05-07 21:46 | 28.34846 | -17.29698 | 18907 ft | 408 kts | 118° |
| 2026-05-07 21:47 | 28.33567 | -17.26882 | 18789 ft | 395 kts | 118° |
| 2026-05-07 21:47 | 28.32298 | -17.24168 | 18676 ft | 383 kts | 120° |
| 2026-05-07 21:47 | 28.31038 | -17.21599 | 18531 ft | 372 kts | 121° |
| 2026-05-07 21:47 | 28.29756 | -17.19085 | 17958 ft | 365 kts | 121° |
| 2026-05-07 21:48 | 28.28469 | -17.16629 | 17289 ft | 360 kts | 122° |
| 2026-05-07 21:48 | 28.27190 | -17.14211 | 16639 ft | 355 kts | 122° |
| 2026-05-07 21:48 | 28.25913 | -17.11832 | 16004 ft | 351 kts | 123° |
| 2026-05-07 21:48 | 28.24576 | -17.09540 | 15388 ft | 346 kts | 125° |
| 2026-05-07 21:49 | 28.23208 | -17.07317 | 14793 ft | 342 kts | 126° |
| 2026-05-07 21:49 | 28.21835 | -17.05136 | 14208 ft | 338 kts | 126° |
| 2026-05-07 21:49 | 28.20490 | -17.03006 | 13581 ft | 335 kts | 126° |
| 2026-05-07 21:49 | 28.19155 | -17.00878 | 13162 ft | 324 kts | 126° |
| 2026-05-07 21:50 | 28.17891 | -16.98857 | 12996 ft | 305 kts | 128° |
| 2026-05-07 21:50 | 28.16420 | -16.97198 | 12573 ft | 295 kts | 147° |
| 2026-05-07 21:50 | 28.14641 | -16.96131 | 12046 ft | 287 kts | 162° |
| 2026-05-07 21:50 | 28.12781 | -16.95316 | 11478 ft | 286 kts | 162° |
| 2026-05-07 21:51 | 28.10932 | -16.94499 | 10931 ft | 284 kts | 161° |
| 2026-05-07 21:51 | 28.09099 | -16.93682 | 10409 ft | 282 kts | 161° |
| 2026-05-07 21:51 | 28.07277 | -16.92869 | 9871 ft | 281 kts | 161° |
| 2026-05-07 21:51 | 28.05492 | -16.92074 | 9315 ft | 278 kts | 161° |
| 2026-05-07 21:52 | 28.03669 | -16.91413 | 8774 ft | 271 kts | 178° |
| 2026-05-07 21:52 | 28.01866 | -16.91672 | 8270 ft | 257 kts | 208° |
| 2026-05-07 21:52 | 28.00468 | -16.92827 | 7734 ft | 246 kts | 236° |
| 2026-05-07 21:52 | 27.99675 | -16.94496 | 7188 ft | 240 kts | 250° |
| 2026-05-07 21:53 | 27.99029 | -16.96238 | 6682 ft | 240 kts | 250° |
| 2026-05-07 21:53 | 27.98389 | -16.97959 | 6573 ft | 237 kts | 250° |
| 2026-05-07 21:53 | 27.97751 | -16.99671 | 6461 ft | 236 kts | 250° |
| 2026-05-07 21:53 | 27.97111 | -17.01383 | 6361 ft | 236 kts | 250° |
| 2026-05-07 21:54 | 27.96480 | -17.03069 | 6216 ft | 236 kts | 250° |
| 2026-05-07 21:54 | 27.95839 | -17.04774 | 6090 ft | 235 kts | 249° |
| 2026-05-07 21:54 | 27.95199 | -17.06472 | 5994 ft | 234 kts | 249° |
| 2026-05-07 21:54 | 27.94562 | -17.08165 | 5885 ft | 234 kts | 249° |
| 2026-05-07 21:55 | 27.93925 | -17.09857 | 5766 ft | 234 kts | 249° |
| 2026-05-07 21:55 | 27.93287 | -17.11546 | 5654 ft | 234 kts | 249° |
| 2026-05-07 21:55 | 27.92645 | -17.13235 | 5540 ft | 234 kts | 247° |
| 2026-05-07 21:55 | 27.91637 | -17.14664 | 5424 ft | 238 kts | 216° |
| 2026-05-07 21:56 | 27.90092 | -17.15240 | 5308 ft | 243 kts | 181° |
| 2026-05-07 21:56 | 27.88458 | -17.14776 | 5186 ft | 246 kts | 158° |
| 2026-05-07 21:56 | 27.86884 | -17.14020 | 5036 ft | 246 kts | 157° |
| 2026-05-07 21:56 | 27.85508 | -17.12910 | 4908 ft | 245 kts | 127° |
| 2026-05-07 21:57 | 27.84830 | -17.11177 | 4786 ft | 243 kts | 95° |
| 2026-05-07 21:57 | 27.85028 | -17.09321 | 4665 ft | 239 kts | 67° |
| 2026-05-07 21:57 | 27.85672 | -17.07594 | 4556 ft | 239 kts | 65° |
| 2026-05-07 21:57 | 27.86325 | -17.05870 | 4435 ft | 238 kts | 65° |
| 2026-05-07 21:58 | 27.86976 | -17.04153 | 4323 ft | 238 kts | 65° |
| 2026-05-07 21:58 | 27.87628 | -17.02435 | 4213 ft | 238 kts | 65° |
| 2026-05-07 21:58 | 27.88059 | -17.01298 | 4144 ft | 237 kts | 65° |
| 2026-05-07 21:58 | 27.88918 | -16.99033 | 3993 ft | 237 kts | 65° |
| 2026-05-07 21:59 | 27.89563 | -16.97326 | 3891 ft | 236 kts | 65° |
| 2026-05-07 21:59 | 27.90207 | -16.95615 | 3792 ft | 236 kts | 65° |
| 2026-05-07 21:59 | 27.90847 | -16.93911 | 3681 ft | 235 kts | 65° |
| 2026-05-07 21:59 | 27.91485 | -16.92208 | 3575 ft | 235 kts | 66° |
| 2026-05-07 22:00 | 27.92122 | -16.90510 | 3465 ft | 234 kts | 65° |
| 2026-05-07 22:00 | 27.92543 | -16.89385 | 3396 ft | 234 kts | 65° |
| 2026-05-07 22:00 | 27.93178 | -16.87693 | 3289 ft | 234 kts | 66° |
| 2026-05-07 22:00 | 27.94029 | -16.85462 | 3147 ft | 233 kts | 64° |
| 2026-05-07 22:01 | 27.94705 | -16.83795 | 3040 ft | 233 kts | 64° |
| 2026-05-07 22:01 | 27.95390 | -16.82139 | 2929 ft | 232 kts | 62° |
| 2026-05-07 22:01 | 27.96168 | -16.80584 | 2828 ft | 222 kts | 60° |
| 2026-05-07 22:01 | 27.96614 | -16.79568 | 2762 ft | 215 kts | 65° |
| 2026-05-07 22:02 | 27.97182 | -16.78046 | 2673 ft | 206 kts | 66° |
| 2026-05-07 22:02 | 27.97707 | -16.76556 | 2577 ft | 203 kts | 67° |
| 2026-05-07 22:02 | 27.98223 | -16.75081 | 2492 ft | 201 kts | 66° |
| 2026-05-07 22:02 | 27.98737 | -16.73613 | 2401 ft | 201 kts | 67° |
| 2026-05-07 22:03 | 27.99252 | -16.72141 | 2311 ft | 201 kts | 68° |
| 2026-05-07 22:03 | 27.99764 | -16.70676 | 2229 ft | 199 kts | 68° |
| 2026-05-07 22:03 | 28.00272 | -16.69221 | 2089 ft | 196 kts | 67° |
| 2026-05-07 22:03 | 28.00766 | -16.67808 | 1879 ft | 187 kts | 68° |
| 2026-05-07 22:04 | 28.01216 | -16.66512 | 1642 ft | 171 kts | 68° |
| 2026-05-07 22:04 | 28.01588 | -16.65328 | 1421 ft | 154 kts | 70° |
| 2026-05-07 22:04 | 28.01977 | -16.64237 | 1197 ft | 144 kts | 65° |
| 2026-05-07 22:04 | 28.02360 | -16.63217 | 1032 ft | 138 kts | 66° |
| 2026-05-07 22:05 | 28.02705 | -16.62216 | 860 ft | 135 kts | 69° |
| 2026-05-07 22:05 | 28.03057 | -16.61217 | 672 ft | 137 kts | 67° |
| 2026-05-07 22:05 | 28.03410 | -16.60219 | 491 ft | 137 kts | 67° |
| 2026-05-07 22:05 | 28.03760 | -16.59224 | 316 ft | 136 kts | 66° |
| 2026-05-07 22:06 | 28.04097 | -16.58254 | 208 ft | 126 kts | 67° |
| 2026-05-07 22:06 | 28.04361 | -16.57506 | 191 ft | 77 kts | 69° |
| 2026-05-07 22:06 | 28.04505 | -16.57105 | 199 ft | 36 kts | 66° |
| 2026-05-07 22:06 | 28.04615 | -16.56928 | 203 ft | 25 kts | 44° |
| 2026-05-07 22:07 | 28.04718 | -16.56806 | 219 ft | 12 kts | 33° |
| 2026-05-07 22:07 | 28.04748 | -16.56801 | 220 ft | 4 kts | 351° |
| 2026-05-07 22:07 | 28.04776 | -16.56845 | 219 ft | 15 kts | 279° |
| 2026-05-07 22:07 | 28.04742 | -16.56953 | 220 ft | 13 kts | 249° |
| 2026-05-07 22:08 | 28.04710 | -16.57041 | 222 ft | 11 kts | 247° |
| 2026-05-07 22:08 | 28.04689 | -16.57111 | 223 ft | 9 kts | 264° |
| 2026-05-07 22:08 | 28.04727 | -16.57164 | 223 ft | 9 kts | 334° |
| 2026-05-07 22:08 | 28.04780 | -16.57193 | 224 ft | 7 kts | 315° |
| 2026-05-07 22:09 | 28.04781 | -16.57237 | 225 ft | 7 kts | 252° |
| 2026-05-07 22:09 | 28.04753 | -16.57312 | 225 ft | 19 kts | 249° |
| 2026-05-07 22:09 | 28.04700 | -16.57457 | 224 ft | 17 kts | 249° |
| 2026-05-07 22:09 | 28.04674 | -16.57527 | 226 ft | 6 kts | 245° |
| 2026-05-07 22:10 | 28.04652 | -16.57590 | 224 ft | 11 kts | 249° |
| 2026-05-07 22:10 | 28.04627 | -16.57664 | 224 ft | 10 kts | 249° |
| 2026-05-07 22:10 | 28.04604 | -16.57730 | 224 ft | 8 kts | 252° |
| 2026-05-07 22:10 | 28.04627 | -16.57768 | 225 ft | 5 kts | 336° |
| 2026-05-07 22:11 | 28.04650 | -16.57778 | 227 ft | 2 kts | 338° |
| 2026-05-07 22:11 | 28.04661 | -16.57783 | 226 ft | 1 kts | 338° |
| 2026-05-07 22:11 | 28.04668 | -16.57787 | 226 ft | 1 kts | 338° |
| 2026-05-07 22:11 | 28.04672 | -16.57788 | 226 ft | 0 kts | 338° |